sensor_id;sensor_type;location;lat;lon;timestamp;pressure;altitude;pressure_sealevel;temperature;humidity
10466;BME280;5280;42.600;23.556;2023-02-02T00:02:10;93473.44;;;2.99;75.44
10466;BME280;5280;42.600;23.556;2023-02-02T00:04:37;93462.91;;;3.01;74.61
10466;BME280;5280;42.600;23.556;2023-02-02T00:07:04;93425.69;;;2.97;77.29
10466;BME280;5280;42.600;23.556;2023-02-02T00:09:32;93460.75;;;3.09;79.88
10466;BME280;5280;42.600;23.556;2023-02-02T00:11:59;93450.19;;;3.12;77.48
10466;BME280;5280;42.600;23.556;2023-02-02T00:14:28;93450.53;;;3.04;74.25
10466;BME280;5280;42.600;23.556;2023-02-02T00:16:56;93455.41;;;3.12;76.92
10466;BME280;5280;42.600;23.556;2023-02-02T00:19:24;93435.13;;;3.00;74.21
10466;BME280;5280;42.600;23.556;2023-02-02T00:21:52;93458.78;;;3.14;72.69
10466;BME280;5280;42.600;23.556;2023-02-02T00:24:19;93437.97;;;2.95;74.17
10466;BME280;5280;42.600;23.556;2023-02-02T00:26:48;93455.25;;;3.15;73.15
10466;BME280;5280;42.600;23.556;2023-02-02T00:29:17;93463.56;;;3.23;73.72
10466;BME280;5280;42.600;23.556;2023-02-02T00:31:45;93456.78;;;3.19;72.76
10466;BME280;5280;42.600;23.556;2023-02-02T00:34:13;93467.16;;;3.21;72.87
10466;BME280;5280;42.600;23.556;2023-02-02T00:36:40;93414.41;;;2.97;73.56
10466;BME280;5280;42.600;23.556;2023-02-02T00:39:08;93452.34;;;3.21;72.69
10466;BME280;5280;42.600;23.556;2023-02-02T00:41:35;93449.94;;;3.17;73.45
10466;BME280;5280;42.600;23.556;2023-02-02T00:44:02;93456.63;;;3.22;71.99
10466;BME280;5280;42.600;23.556;2023-02-02T00:46:48;93448.94;;;3.19;72.73
10466;BME280;5280;42.600;23.556;2023-02-02T00:49:15;93442.59;;;3.08;73.26
10466;BME280;5280;42.600;23.556;2023-02-02T00:51:42;93455.25;;;3.15;73.00
10466;BME280;5280;42.600;23.556;2023-02-02T00:54:09;93403.84;;;2.64;76.85
10466;BME280;5280;42.600;23.556;2023-02-02T00:56:35;93436.81;;;3.01;75.30
10466;BME280;5280;42.600;23.556;2023-02-02T00:59:02;93451.06;;;2.94;76.04
10466;BME280;5280;42.600;23.556;2023-02-02T01:01:29;93450.03;;;2.98;75.71
10466;BME280;5280;42.600;23.556;2023-02-02T01:03:59;93452.72;;;2.96;76.58
10466;BME280;5280;42.600;23.556;2023-02-02T01:06:26;93397.72;;;2.65;76.46
10466;BME280;5280;42.600;23.556;2023-02-02T01:08:53;93418.97;;;2.75;76.48
10466;BME280;5280;42.600;23.556;2023-02-02T01:11:19;93430.97;;;2.79;76.92
10466;BME280;5280;42.600;23.556;2023-02-02T01:13:46;93440.41;;;2.81;77.77
10466;BME280;5280;42.600;23.556;2023-02-02T01:16:13;93445.84;;;2.77;76.12
10466;BME280;5280;42.600;23.556;2023-02-02T01:18:40;93440.63;;;2.77;76.15
10466;BME280;5280;42.600;23.556;2023-02-02T01:21:10;93447.69;;;2.75;75.73
10466;BME280;5280;42.600;23.556;2023-02-02T01:23:38;93442.47;;;2.75;76.52
10466;BME280;5280;42.600;23.556;2023-02-02T01:26:08;93444.16;;;2.76;77.31
10466;BME280;5280;42.600;23.556;2023-02-02T01:28:35;93426.13;;;2.71;77.65
10466;BME280;5280;42.600;23.556;2023-02-02T01:31:06;93421.19;;;2.65;80.34
10466;BME280;5280;42.600;23.556;2023-02-02T01:33:33;93430.66;;;2.68;78.87
10466;BME280;5280;42.600;23.556;2023-02-02T01:36:03;93433.38;;;2.65;77.32
10466;BME280;5280;42.600;23.556;2023-02-02T01:38:33;93426.34;;;2.67;80.70
10466;BME280;5280;42.600;23.556;2023-02-02T01:41:00;93412.84;;;2.58;77.94
10466;BME280;5280;42.600;23.556;2023-02-02T01:43:47;93413.22;;;2.68;78.62
10466;BME280;5280;42.600;23.556;2023-02-02T01:46:18;93411.66;;;2.64;78.67
10466;BME280;5280;42.600;23.556;2023-02-02T01:48:47;93401.16;;;2.66;81.39
10466;BME280;5280;42.600;23.556;2023-02-02T01:51:17;93388.41;;;2.59;78.25
10466;BME280;5280;42.600;23.556;2023-02-02T01:53:47;93376.38;;;2.57;79.94
10466;BME280;5280;42.600;23.556;2023-02-02T01:56:20;93407.63;;;2.76;79.93
10466;BME280;5280;42.600;23.556;2023-02-02T01:58:50;93402.41;;;2.76;78.10
10466;BME280;5280;42.600;23.556;2023-02-02T02:01:17;93396.28;;;2.77;80.51
10466;BME280;5280;42.600;23.556;2023-02-02T02:03:46;93389.53;;;2.73;78.46
10466;BME280;5280;42.600;23.556;2023-02-02T02:06:16;93385.91;;;2.75;80.69
10466;BME280;5280;42.600;23.556;2023-02-02T02:08:49;93398.25;;;2.72;79.73
10466;BME280;5280;42.600;23.556;2023-02-02T02:11:17;93401.78;;;2.71;79.36
10466;BME280;5280;42.600;23.556;2023-02-02T02:13:44;93381.06;;;2.68;80.05
10466;BME280;5280;42.600;23.556;2023-02-02T02:16:40;93362.94;;;2.47;78.36
10466;BME280;5280;42.600;23.556;2023-02-02T02:19:23;93402.69;;;2.70;78.65
10466;BME280;5280;42.600;23.556;2023-02-02T02:21:58;93400.25;;;2.67;78.60
10466;BME280;5280;42.600;23.556;2023-02-02T02:25:14;93398.88;;;2.77;77.83
10466;BME280;5280;42.600;23.556;2023-02-02T02:28:15;93397.34;;;2.73;76.78
10466;BME280;5280;42.600;23.556;2023-02-02T02:33:43;93411.94;;;2.77;77.65
10466;BME280;5280;42.600;23.556;2023-02-02T02:36:16;93424.44;;;2.87;77.18
10466;BME280;5280;42.600;23.556;2023-02-02T02:38:51;93426.56;;;2.79;77.57
10466;BME280;5280;42.600;23.556;2023-02-02T02:41:26;93414.38;;;2.63;78.80
10466;BME280;5280;42.600;23.556;2023-02-02T02:43:59;93428.09;;;2.66;80.03
10466;BME280;5280;42.600;23.556;2023-02-02T02:46:27;93453.34;;;2.66;81.50
10466;BME280;5280;42.600;23.556;2023-02-02T02:48:57;93437.06;;;2.60;81.99
10466;BME280;5280;42.600;23.556;2023-02-02T02:51:48;93444.88;;;2.60;81.58
10466;BME280;5280;42.600;23.556;2023-02-02T02:54:18;93423.34;;;2.57;81.86
10466;BME280;5280;42.600;23.556;2023-02-02T02:57:12;93437.69;;;2.66;83.17
10466;BME280;5280;42.600;23.556;2023-02-02T02:59:50;93428.25;;;2.63;83.57
10466;BME280;5280;42.600;23.556;2023-02-02T03:02:31;93433.78;;;2.57;83.39
10466;BME280;5280;42.600;23.556;2023-02-02T03:05:07;93428.41;;;2.24;84.34
10466;BME280;5280;42.600;23.556;2023-02-02T03:07:41;93429.44;;;2.39;84.46
10466;BME280;5280;42.600;23.556;2023-02-02T03:10:12;93440.69;;;2.39;84.77
10466;BME280;5280;42.600;23.556;2023-02-02T03:12:45;93434.84;;;2.34;84.39
10466;BME280;5280;42.600;23.556;2023-02-02T03:15:12;93429.44;;;2.39;84.28
10466;BME280;5280;42.600;23.556;2023-02-02T03:17:40;93399.84;;;2.21;83.94
10466;BME280;5280;42.600;23.556;2023-02-02T03:20:09;93436.06;;;2.27;84.11
10466;BME280;5280;42.600;23.556;2023-02-02T03:22:36;93426.78;;;2.22;84.82
10466;BME280;5280;42.600;23.556;2023-02-02T03:25:04;93411.16;;;2.03;85.45
10466;BME280;5280;42.600;23.556;2023-02-02T03:27:31;93419.72;;;2.05;86.05
10466;BME280;5280;42.600;23.556;2023-02-02T03:29:58;93418.81;;;2.06;85.11
10466;BME280;5280;42.600;23.556;2023-02-02T03:32:25;93428.19;;;2.10;85.58
10466;BME280;5280;42.600;23.556;2023-02-02T03:34:52;93420.56;;;2.05;85.71
10466;BME280;5280;42.600;23.556;2023-02-02T03:37:20;93409.94;;;1.91;85.93
10466;BME280;5280;42.600;23.556;2023-02-02T03:39:47;93428.75;;;1.98;87.00
10466;BME280;5280;42.600;23.556;2023-02-02T03:42:13;93423.13;;;1.88;86.84
10466;BME280;5280;42.600;23.556;2023-02-02T03:44:40;93426.44;;;1.92;87.26
10466;BME280;5280;42.600;23.556;2023-02-02T03:47:07;93433.53;;;1.88;87.20
10466;BME280;5280;42.600;23.556;2023-02-02T03:49:34;93422.81;;;1.76;87.10
10466;BME280;5280;42.600;23.556;2023-02-02T03:52:01;93434.78;;;1.80;87.38
10466;BME280;5280;42.600;23.556;2023-02-02T03:54:30;93421.41;;;1.68;88.09
10466;BME280;5280;42.600;23.556;2023-02-02T03:56:57;93420.69;;;1.65;88.22
10466;BME280;5280;42.600;23.556;2023-02-02T03:59:24;93443.00;;;1.70;88.55
10466;BME280;5280;42.600;23.556;2023-02-02T04:01:51;93442.25;;;1.68;89.29
10466;BME280;5280;42.600;23.556;2023-02-02T04:04:17;93415.25;;;1.51;89.32
10466;BME280;5280;42.600;23.556;2023-02-02T04:06:47;93376.59;;;1.23;89.88
10466;BME280;5280;42.600;23.556;2023-02-02T04:09:13;93429.56;;;1.61;89.12
10466;BME280;5280;42.600;23.556;2023-02-02T04:11:41;93434.06;;;1.57;89.43
10466;BME280;5280;42.600;23.556;2023-02-02T04:14:08;93440.56;;;1.67;90.64
10466;BME280;5280;42.600;23.556;2023-02-02T04:16:35;93438.88;;;1.66;89.98
10466;BME280;5280;42.600;23.556;2023-02-02T04:19:02;93434.44;;;1.68;90.11
10466;BME280;5280;42.600;23.556;2023-02-02T04:21:29;93436.41;;;1.63;90.39
10466;BME280;5280;42.600;23.556;2023-02-02T04:23:56;93434.97;;;1.56;91.16
10466;BME280;5280;42.600;23.556;2023-02-02T04:26:22;93429.91;;;1.53;91.10
10466;BME280;5280;42.600;23.556;2023-02-02T04:28:52;93428.22;;;1.52;91.14
10466;BME280;5280;42.600;23.556;2023-02-02T04:31:19;93434.22;;;1.54;91.31
10466;BME280;5280;42.600;23.556;2023-02-02T04:33:46;93419.44;;;1.35;91.99
10466;BME280;5280;42.600;23.556;2023-02-02T04:36:13;93423.75;;;1.36;92.28
10466;BME280;5280;42.600;23.556;2023-02-02T04:38:40;93442.16;;;1.31;93.33
10466;BME280;5280;42.600;23.556;2023-02-02T04:41:07;93442.31;;;1.28;94.47
10466;BME280;5280;42.600;23.556;2023-02-02T04:43:37;93441.66;;;1.23;94.55
10466;BME280;5280;42.600;23.556;2023-02-02T04:46:05;93447.47;;;1.29;93.88
10466;BME280;5280;42.600;23.556;2023-02-02T04:48:32;93429.59;;;1.20;94.67
10466;BME280;5280;42.600;23.556;2023-02-02T04:50:59;93443.72;;;1.15;96.00
10466;BME280;5280;42.600;23.556;2023-02-02T04:53:26;93435.56;;;1.04;95.91
10466;BME280;5280;42.600;23.556;2023-02-02T04:55:53;93449.47;;;1.03;95.75
10466;BME280;5280;42.600;23.556;2023-02-02T04:58:20;93458.78;;;1.08;95.30
10466;BME280;5280;42.600;23.556;2023-02-02T05:00:47;93444.06;;;1.07;95.30
10466;BME280;5280;42.600;23.556;2023-02-02T05:03:15;93458.69;;;1.10;95.74
10466;BME280;5280;42.600;23.556;2023-02-02T05:05:45;93478.53;;;1.12;95.65
10466;BME280;5280;42.600;23.556;2023-02-02T05:08:11;93462.69;;;1.18;96.30
10466;BME280;5280;42.600;23.556;2023-02-02T05:10:39;93454.78;;;1.20;95.98
10466;BME280;5280;42.600;23.556;2023-02-02T05:13:06;93472.25;;;1.18;95.89
10466;BME280;5280;42.600;23.556;2023-02-02T05:15:34;93466.66;;;1.27;95.49
10466;BME280;5280;42.600;23.556;2023-02-02T05:18:01;93472.94;;;1.21;95.38
10466;BME280;5280;42.600;23.556;2023-02-02T05:20:29;93466.44;;;1.11;95.31
10466;BME280;5280;42.600;23.556;2023-02-02T05:22:55;93472.25;;;1.18;95.54
10466;BME280;5280;42.600;23.556;2023-02-02T05:25:22;93479.00;;;1.22;94.26
10466;BME280;5280;42.600;23.556;2023-02-02T05:27:49;93461.78;;;1.19;95.04
10466;BME280;5280;42.600;23.556;2023-02-02T05:30:16;93457.03;;;1.09;94.81
10466;BME280;5280;42.600;23.556;2023-02-02T05:32:43;93452.66;;;1.09;95.28
10466;BME280;5280;42.600;23.556;2023-02-02T05:35:10;93464.44;;;1.18;94.45
10466;BME280;5280;42.600;23.556;2023-02-02T05:37:38;93465.28;;;1.18;94.37
10466;BME280;5280;42.600;23.556;2023-02-02T05:40:05;93471.25;;;1.20;94.28
10466;BME280;5280;42.600;23.556;2023-02-02T05:42:32;93467.16;;;1.15;94.23
10466;BME280;5280;42.600;23.556;2023-02-02T05:44:59;93473.41;;;1.11;94.92
10466;BME280;5280;42.600;23.556;2023-02-02T05:47:26;93460.78;;;1.02;94.40
10466;BME280;5280;42.600;23.556;2023-02-02T05:49:53;93452.31;;;0.97;93.54
10466;BME280;5280;42.600;23.556;2023-02-02T05:52:21;93487.84;;;1.18;93.64
10466;BME280;5280;42.600;23.556;2023-02-02T05:54:50;93484.59;;;1.13;93.31
10466;BME280;5280;42.600;23.556;2023-02-02T05:57:17;93475.28;;;1.07;93.39
10466;BME280;5280;42.600;23.556;2023-02-02T05:59:44;93469.38;;;1.04;93.04
10466;BME280;5280;42.600;23.556;2023-02-02T06:02:11;93497.63;;;1.13;93.08
10466;BME280;5280;42.600;23.556;2023-02-02T06:04:38;93488.34;;;1.06;93.25
10466;BME280;5280;42.600;23.556;2023-02-02T06:07:05;93503.72;;;1.12;93.21
10466;BME280;5280;42.600;23.556;2023-02-02T06:09:31;93497.66;;;1.11;93.53
10466;BME280;5280;42.600;23.556;2023-02-02T06:11:59;93505.53;;;1.10;93.69
10466;BME280;5280;42.600;23.556;2023-02-02T06:14:26;93499.28;;;0.94;94.82
10466;BME280;5280;42.600;23.556;2023-02-02T06:16:53;93498.75;;;1.06;95.56
10466;BME280;5280;42.600;23.556;2023-02-02T06:19:20;93494.00;;;0.95;96.36
10466;BME280;5280;42.600;23.556;2023-02-02T06:21:46;93483.69;;;0.94;96.58
10466;BME280;5280;42.600;23.556;2023-02-02T06:24:13;93494.00;;;0.95;97.04
10466;BME280;5280;42.600;23.556;2023-02-02T06:26:40;93502.25;;;1.05;97.15
10466;BME280;5280;42.600;23.556;2023-02-02T06:29:11;93490.31;;;1.01;97.86
10466;BME280;5280;42.600;23.556;2023-02-02T06:31:39;93511.47;;;1.13;98.07
10466;BME280;5280;42.600;23.556;2023-02-02T06:34:05;93512.91;;;1.20;97.83
10466;BME280;5280;42.600;23.556;2023-02-02T06:36:32;93508.28;;;1.27;98.30
10466;BME280;5280;42.600;23.556;2023-02-02T06:38:59;93515.06;;;1.31;98.37
10466;BME280;5280;42.600;23.556;2023-02-02T06:41:29;93503.69;;;1.34;98.43
10466;BME280;5280;42.600;23.556;2023-02-02T06:43:55;93511.53;;;1.32;98.80
10466;BME280;5280;42.600;23.556;2023-02-02T06:46:24;93506.09;;;1.38;99.83
10466;BME280;5280;42.600;23.556;2023-02-02T06:48:53;93498.03;;;1.44;100.00
10466;BME280;5280;42.600;23.556;2023-02-02T06:51:20;93513.44;;;1.49;99.10
10466;BME280;5280;42.600;23.556;2023-02-02T06:53:47;93510.00;;;1.48;96.78
10466;BME280;5280;42.600;23.556;2023-02-02T06:56:14;93489.72;;;1.35;95.65
10466;BME280;5280;42.600;23.556;2023-02-02T06:58:41;93528.72;;;1.56;94.33
10466;BME280;5280;42.600;23.556;2023-02-02T07:01:09;93529.97;;;1.68;93.52
10466;BME280;5280;42.600;23.556;2023-02-02T07:03:41;93545.59;;;1.68;94.14
10466;BME280;5280;42.600;23.556;2023-02-02T07:06:12;93538.22;;;1.78;93.78
10466;BME280;5280;42.600;23.556;2023-02-02T07:08:39;93531.72;;;1.88;92.23
10466;BME280;5280;42.600;23.556;2023-02-02T07:11:06;93539.25;;;1.94;93.52
10466;BME280;5280;42.600;23.556;2023-02-02T07:13:34;93538.13;;;1.99;93.86
10466;BME280;5280;42.600;23.556;2023-02-02T07:16:02;93544.19;;;2.00;94.98
10466;BME280;5280;42.600;23.556;2023-02-02T07:18:29;93521.03;;;1.73;94.50
10466;BME280;5280;42.600;23.556;2023-02-02T07:20:58;93547.38;;;2.06;94.08
10466;BME280;5280;42.600;23.556;2023-02-02T07:23:25;93548.28;;;2.05;91.62
10466;BME280;5280;42.600;23.556;2023-02-02T07:26:03;93483.38;;;1.81;91.56
10466;BME280;5280;42.600;23.556;2023-02-02T07:28:30;93524.28;;;2.17;90.74
10466;BME280;5280;42.600;23.556;2023-02-02T07:30:57;93523.94;;;2.25;92.70
10466;BME280;5280;42.600;23.556;2023-02-02T07:33:24;93542.06;;;2.28;91.42
10466;BME280;5280;42.600;23.556;2023-02-02T07:35:51;93534.22;;;2.28;90.55
10466;BME280;5280;42.600;23.556;2023-02-02T07:38:19;93533.88;;;2.36;89.59
10466;BME280;5280;42.600;23.556;2023-02-02T07:40:46;93532.75;;;2.41;87.58
10466;BME280;5280;42.600;23.556;2023-02-02T07:43:12;93529.50;;;2.36;87.96
10466;BME280;5280;42.600;23.556;2023-02-02T07:45:39;93536.91;;;2.45;87.78
10466;BME280;5280;42.600;23.556;2023-02-02T07:48:06;93529.06;;;2.45;88.03
10466;BME280;5280;42.600;23.556;2023-02-02T07:50:32;93537.53;;;2.50;87.70
10466;BME280;5280;42.600;23.556;2023-02-02T07:52:59;93543.16;;;2.60;87.53
10466;BME280;5280;42.600;23.556;2023-02-02T07:55:27;93529.16;;;2.63;86.73
10466;BME280;5280;42.600;23.556;2023-02-02T07:57:54;93524.47;;;2.69;86.54
10466;BME280;5280;42.600;23.556;2023-02-02T08:00:23;93520.72;;;2.75;85.57
10466;BME280;5280;42.600;23.556;2023-02-02T08:02:50;93520.72;;;2.75;86.89
10466;BME280;5280;42.600;23.556;2023-02-02T08:05:17;93519.88;;;2.74;88.04
10466;BME280;5280;42.600;23.556;2023-02-02T08:07:43;93521.31;;;2.81;86.54
10466;BME280;5280;42.600;23.556;2023-02-02T08:10:10;93508.47;;;2.77;85.56
10466;BME280;5280;42.600;23.556;2023-02-02T08:12:39;93503.41;;;2.74;84.68
10466;BME280;5280;42.600;23.556;2023-02-02T08:15:06;93478.34;;;2.52;83.81
10466;BME280;5280;42.600;23.556;2023-02-02T08:17:33;93475.28;;;2.62;83.02
10466;BME280;5280;42.600;23.556;2023-02-02T08:20:00;93492.41;;;2.67;83.12
10466;BME280;5280;42.600;23.556;2023-02-02T08:22:26;93496.41;;;2.74;82.77
10466;BME280;5280;42.600;23.556;2023-02-02T08:24:53;93479.31;;;2.69;82.61
10466;BME280;5280;42.600;23.556;2023-02-02T08:27:20;93469.66;;;2.88;82.22
10466;BME280;5280;42.600;23.556;2023-02-02T08:29:48;93480.34;;;3.00;82.21
10466;BME280;5280;42.600;23.556;2023-02-02T08:32:15;93477.38;;;3.08;81.29
10466;BME280;5280;42.600;23.556;2023-02-02T08:34:41;93477.28;;;3.10;81.14
10466;BME280;5280;42.600;23.556;2023-02-02T08:37:08;93484.69;;;3.19;81.23
10466;BME280;5280;42.600;23.556;2023-02-02T08:39:53;93472.84;;;3.12;81.36
10466;BME280;5280;42.600;23.556;2023-02-02T08:42:19;93489.56;;;3.25;80.54
10466;BME280;5280;42.600;23.556;2023-02-02T08:44:48;93485.50;;;3.19;81.43
10466;BME280;5280;42.600;23.556;2023-02-02T08:47:17;93476.22;;;3.14;81.22
10466;BME280;5280;42.600;23.556;2023-02-02T08:49:44;93468.38;;;2.96;82.01
10466;BME280;5280;42.600;23.556;2023-02-02T08:52:11;93455.38;;;2.95;81.64
10466;BME280;5280;42.600;23.556;2023-02-02T08:54:38;93477.81;;;3.16;81.22
10466;BME280;5280;42.600;23.556;2023-02-02T08:57:04;93471.00;;;3.14;81.19
10466;BME280;5280;42.600;23.556;2023-02-02T08:59:31;93470.16;;;3.13;81.36
10466;BME280;5280;42.600;23.556;2023-02-02T09:01:59;93454.16;;;3.19;80.69
10466;BME280;5280;42.600;23.556;2023-02-02T09:04:26;93478.66;;;3.34;81.33
10466;BME280;5280;42.600;23.556;2023-02-02T09:06:53;93466.44;;;3.34;81.65
10466;BME280;5280;42.600;23.556;2023-02-02T09:09:20;93460.63;;;3.29;81.02
10466;BME280;5280;42.600;23.556;2023-02-02T09:11:47;93469.84;;;3.54;79.88
10466;BME280;5280;42.600;23.556;2023-02-02T09:14:14;93460.44;;;3.50;80.21
10466;BME280;5280;42.600;23.556;2023-02-02T09:16:40;93472.84;;;3.63;79.42
10466;BME280;5280;42.600;23.556;2023-02-02T09:19:10;93480.88;;;3.76;78.44
10466;BME280;5280;42.600;23.556;2023-02-02T09:21:37;93468.34;;;3.82;77.93
10466;BME280;5280;42.600;23.556;2023-02-02T09:24:06;93454.13;;;3.71;75.29
10466;BME280;5280;42.600;23.556;2023-02-02T09:26:33;93451.88;;;3.80;74.92
10466;BME280;5280;42.600;23.556;2023-02-02T09:29:01;93476.06;;;4.01;74.16
10466;BME280;5280;42.600;23.556;2023-02-02T09:31:30;93454.28;;;4.01;74.16
10466;BME280;5280;42.600;23.556;2023-02-02T09:34:00;93381.09;;;3.52;75.55
10466;BME280;5280;42.600;23.556;2023-02-02T09:36:29;93416.97;;;3.81;75.01
10466;BME280;5280;42.600;23.556;2023-02-02T09:38:56;93375.78;;;3.54;73.49
10466;BME280;5280;42.600;23.556;2023-02-02T09:41:56;93447.81;;;4.08;73.46
10466;BME280;5280;42.600;23.556;2023-02-02T09:44:39;93437.53;;;4.20;73.46
10466;BME280;5280;42.600;23.556;2023-02-02T09:47:16;93441.50;;;4.27;73.67
10466;BME280;5280;42.600;23.556;2023-02-02T09:49:53;93451.28;;;4.24;75.02
10466;BME280;5280;42.600;23.556;2023-02-02T09:52:28;93449.09;;;4.32;74.62
10466;BME280;5280;42.600;23.556;2023-02-02T09:54:58;93444.38;;;4.39;75.22
10466;BME280;5280;42.600;23.556;2023-02-02T09:57:34;93443.44;;;4.40;73.19
10466;BME280;5280;42.600;23.556;2023-02-02T10:00:04;93424.47;;;4.36;72.68
10466;BME280;5280;42.600;23.556;2023-02-02T10:02:35;93424.28;;;4.55;72.73
10466;BME280;5280;42.600;23.556;2023-02-02T10:05:10;93424.03;;;4.44;73.43
10466;BME280;5280;42.600;23.556;2023-02-02T10:07:42;93358.47;;;4.15;72.80
10466;BME280;5280;42.600;23.556;2023-02-02T10:10:15;93424.47;;;4.67;72.20
10466;BME280;5280;42.600;23.556;2023-02-02T10:12:50;93413.63;;;4.73;72.19
10466;BME280;5280;42.600;23.556;2023-02-02T10:15:32;93389.25;;;4.73;71.48
10466;BME280;5280;42.600;23.556;2023-02-02T10:18:04;93378.00;;;4.71;70.02
10466;BME280;5280;42.600;23.556;2023-02-02T10:20:40;93398.38;;;4.96;70.14
10466;BME280;5280;42.600;23.556;2023-02-02T10:23:17;93387.41;;;4.89;71.45
10466;BME280;5280;42.600;23.556;2023-02-02T10:25:54;93396.06;;;5.05;70.48
10466;BME280;5280;42.600;23.556;2023-02-02T10:31:17;93377.69;;;5.21;68.78
10466;BME280;5280;42.600;23.556;2023-02-02T10:33:54;93385.19;;;5.27;70.25
10466;BME280;5280;42.600;23.556;2023-02-02T10:36:28;93369.88;;;5.35;71.00
10466;BME280;5280;42.600;23.556;2023-02-02T10:39:07;93370.00;;;5.48;68.49
10466;BME280;5280;42.600;23.556;2023-02-02T10:41:50;93310.41;;;5.07;67.84
10466;BME280;5280;42.600;23.556;2023-02-02T10:44:28;93284.78;;;5.12;68.78
10466;BME280;5280;42.600;23.556;2023-02-02T10:47:00;93353.97;;;5.67;69.97
10466;BME280;5280;42.600;23.556;2023-02-02T10:49:32;93261.66;;;5.33;67.83
10466;BME280;5280;42.600;23.556;2023-02-02T10:52:06;93351.91;;;5.86;67.92
10466;BME280;5280;42.600;23.556;2023-02-02T10:55:01;93327.97;;;5.92;66.85
10466;BME280;5280;42.600;23.556;2023-02-02T10:57:54;93324.47;;;6.05;66.99
10466;BME280;5280;42.600;23.556;2023-02-02T11:00:29;93320.38;;;6.01;67.46
10466;BME280;5280;42.600;23.556;2023-02-02T11:02:57;93320.00;;;6.08;67.29
10466;BME280;5280;42.600;23.556;2023-02-02T11:05:29;93318.94;;;6.10;67.09
10466;BME280;5280;42.600;23.556;2023-02-02T11:08:16;93327.81;;;6.22;64.52
10466;BME280;5280;42.600;23.556;2023-02-02T11:10:45;93318.97;;;6.23;63.60
10466;BME280;5280;42.600;23.556;2023-02-02T11:13:24;93315.50;;;6.36;64.27
10466;BME280;5280;42.600;23.556;2023-02-02T11:16:20;93311.66;;;6.42;64.47
10466;BME280;5280;42.600;23.556;2023-02-02T11:18:47;93313.56;;;6.53;61.96
10466;BME280;5280;42.600;23.556;2023-02-02T11:21:19;93311.81;;;6.66;61.64
10466;BME280;5280;42.600;23.556;2023-02-02T11:23:58;93302.72;;;6.71;60.37
10466;BME280;5280;42.600;23.556;2023-02-02T11:26:41;93300.94;;;6.72;61.96
10466;BME280;5280;42.600;23.556;2023-02-02T11:29:13;93299.16;;;6.85;57.38
10466;BME280;5280;42.600;23.556;2023-02-02T11:31:41;93294.84;;;6.84;59.96
10466;BME280;5280;42.600;23.556;2023-02-02T11:34:14;93293.81;;;6.86;63.22
10466;BME280;5280;42.600;23.556;2023-02-02T11:36:57;93289.19;;;6.90;61.72
10466;BME280;5280;42.600;23.556;2023-02-02T11:39:27;93270.72;;;6.91;60.87
10466;BME280;5280;42.600;23.556;2023-02-02T11:42:06;93263.16;;;7.00;59.16
10466;BME280;5280;42.600;23.556;2023-02-02T11:44:34;93259.28;;;7.05;56.59
10466;BME280;5280;42.600;23.556;2023-02-02T11:47:04;93179.38;;;6.57;54.03
10466;BME280;5280;42.600;23.556;2023-02-02T11:49:34;93262.41;;;7.23;53.46
10466;BME280;5280;42.600;23.556;2023-02-02T11:52:06;93262.44;;;7.35;52.93
10466;BME280;5280;42.600;23.556;2023-02-02T11:54:45;93266.00;;;7.34;50.57
10466;BME280;5280;42.600;23.556;2023-02-02T11:57:17;93263.28;;;7.36;50.21
10466;BME280;5280;42.600;23.556;2023-02-02T11:59:45;93244.13;;;7.34;53.11
10466;BME280;5280;42.600;23.556;2023-02-02T12:02:29;93248.78;;;7.30;51.74
10466;BME280;5280;42.600;23.556;2023-02-02T12:07:53;93235.41;;;7.08;51.29
10466;BME280;5280;42.600;23.556;2023-02-02T12:10:26;93223.75;;;7.00;51.64
10466;BME280;5280;42.600;23.556;2023-02-02T12:13:02;93200.84;;;6.76;50.04
10466;BME280;5280;42.600;23.556;2023-02-02T12:15:46;93228.78;;;7.03;52.31
10466;BME280;5280;42.600;23.556;2023-02-02T12:18:32;93221.13;;;7.00;55.82
10466;BME280;5280;42.600;23.556;2023-02-02T12:21:04;93217.66;;;6.99;55.16
10466;BME280;5280;42.600;23.556;2023-02-02T12:23:46;93214.50;;;6.94;52.77
10466;BME280;5280;42.600;23.556;2023-02-02T12:26:25;93221.03;;;7.01;52.31
10466;BME280;5280;42.600;23.556;2023-02-02T12:29:13;93225.22;;;7.04;52.34
10466;BME280;5280;42.600;23.556;2023-02-02T12:31:55;93216.81;;;7.11;49.27
10466;BME280;5280;42.600;23.556;2023-02-02T12:34:31;93221.84;;;7.14;49.20
10466;BME280;5280;42.600;23.556;2023-02-02T12:37:08;93201.47;;;7.05;50.20
10466;BME280;5280;42.600;23.556;2023-02-02T12:39:48;93216.38;;;7.17;50.39
10466;BME280;5280;42.600;23.556;2023-02-02T12:42:31;93220.69;;;7.18;49.13
10466;BME280;5280;42.600;23.556;2023-02-02T12:45:17;93219.13;;;7.16;49.48
10466;BME280;5280;42.600;23.556;2023-02-02T12:47:51;93225.22;;;7.16;51.30
10466;BME280;5280;42.600;23.556;2023-02-02T12:50:29;93211.34;;;7.02;52.40
10466;BME280;5280;42.600;23.556;2023-02-02T12:53:16;93221.34;;;6.97;52.13
10466;BME280;5280;42.600;23.556;2023-02-02T12:55:50;93225.31;;;6.89;53.84
10466;BME280;5280;42.600;23.556;2023-02-02T12:58:29;93219.63;;;6.83;56.92
10466;BME280;5280;42.600;23.556;2023-02-02T13:01:22;93209.13;;;6.70;55.08
10466;BME280;5280;42.600;23.556;2023-02-02T13:04:03;93204.81;;;6.69;55.47
10466;BME280;5280;42.600;23.556;2023-02-02T13:09:39;93220.97;;;6.63;55.73
10466;BME280;5280;42.600;23.556;2023-02-02T13:12:12;93230.94;;;6.58;57.54
10466;BME280;5280;42.600;23.556;2023-02-02T13:14:45;93227.44;;;6.45;58.46
10466;BME280;5280;42.600;23.556;2023-02-02T13:17:18;93232.28;;;6.51;57.42
10466;BME280;5280;42.600;23.556;2023-02-02T13:19:51;93194.25;;;6.31;56.91
10466;BME280;5280;42.600;23.556;2023-02-02T13:22:23;93197.59;;;6.33;54.59
10466;BME280;5280;42.600;23.556;2023-02-02T13:24:52;93219.25;;;6.49;55.92
10466;BME280;5280;42.600;23.556;2023-02-02T13:27:22;93195.41;;;6.40;57.25
10466;BME280;5280;42.600;23.556;2023-02-02T13:29:52;93211.91;;;6.42;56.87
10466;BME280;5280;42.600;23.556;2023-02-02T13:32:25;93212.22;;;6.50;56.34
10466;BME280;5280;42.600;23.556;2023-02-02T13:34:58;93220.72;;;6.54;57.27
10466;BME280;5280;42.600;23.556;2023-02-02T13:37:31;93227.88;;;6.52;57.70
10466;BME280;5280;42.600;23.556;2023-02-02T13:40:04;93209.47;;;6.39;59.04
10466;BME280;5280;42.600;23.556;2023-02-02T13:42:37;93205.19;;;6.51;58.60